createdAt,value
2018-09-29T00:01:08.682Z,101448.97
2018-09-29T00:06:27.521Z,101441.55
2018-09-29T00:11:46.180Z,101428.07
2018-09-29T00:17:04.944Z,101442.05
2018-09-29T00:22:23.594Z,101436.47
2018-09-29T00:27:42.342Z,101445.27
2018-09-29T00:33:01.184Z,101443.26
2018-09-29T00:38:19.943Z,101438.20
2018-09-29T00:43:38.588Z,101441.73
2018-09-29T00:48:57.200Z,101435.74
2018-09-29T00:54:15.922Z,101434.17
2018-09-29T00:59:34.536Z,101431.32
2018-09-29T01:04:53.187Z,101424.90
2018-09-29T01:10:11.857Z,101421.32
2018-09-29T01:15:30.521Z,101419.00
2018-09-29T01:20:49.172Z,101416.73
2018-09-29T01:26:08.407Z,101401.27
2018-09-29T01:31:27.038Z,101413.48
2018-09-29T01:36:45.701Z,101412.46
2018-09-29T01:42:04.434Z,101410.17
2018-09-29T01:47:23.237Z,101407.94
2018-09-29T01:52:42.146Z,101410.56
2018-09-29T01:58:00.831Z,101406.03
2018-09-29T02:03:19.486Z,101411.41
2018-09-29T02:08:38.235Z,101403.94
2018-09-29T02:13:56.867Z,101406.33
2018-09-29T02:19:15.483Z,101403.23
2018-09-29T02:24:34.147Z,101409.44
2018-09-29T02:29:52.746Z,101409.08
2018-09-29T02:35:11.453Z,101409.72
2018-09-29T02:40:30.228Z,101410.17
2018-09-29T02:45:49.036Z,101410.77
2018-09-29T02:51:07.820Z,101400.52
2018-09-29T02:56:26.904Z,101400.87
2018-09-29T03:01:45.622Z,101402.31
2018-09-29T03:07:04.392Z,101412.83
2018-09-29T03:12:23.048Z,101402.31
2018-09-29T03:17:41.739Z,101402.91
2018-09-29T03:23:00.392Z,101393.37
2018-09-29T03:28:19.184Z,101394.34
2018-09-29T03:33:37.807Z,101394.56
2018-09-29T03:38:56.465Z,101389.92
2018-09-29T03:44:15.217Z,101383.13
2018-09-29T03:49:34.068Z,101380.73
2018-09-29T03:54:52.748Z,101383.00
2018-09-29T04:00:11.375Z,101383.00
2018-09-29T04:05:30.169Z,101388.00
2018-09-29T04:10:48.840Z,101388.34
2018-09-29T04:16:07.603Z,101391.34
2018-09-29T04:21:26.295Z,101389.08
2018-09-29T04:26:44.956Z,101405.63
2018-09-29T04:32:03.633Z,101404.81
2018-09-29T04:37:22.305Z,101399.21
2018-09-29T04:42:41.012Z,101403.98
2018-09-29T04:47:59.686Z,101413.03
2018-09-29T04:53:18.469Z,101423.73
2018-09-29T04:58:37.192Z,101414.19
2018-09-29T05:03:55.883Z,101430.62
2018-09-29T05:09:14.506Z,101428.80
2018-09-29T05:14:33.359Z,101427.86
2018-09-29T05:19:52.143Z,101432.45
2018-09-29T05:25:10.810Z,101426.92
2018-09-29T05:30:29.550Z,101428.42
2018-09-29T05:35:48.302Z,101439.01
2018-09-29T05:41:07.056Z,101439.42
2018-09-29T05:46:25.783Z,101444.20
2018-09-29T05:51:44.565Z,101443.26
2018-09-29T05:57:03.427Z,101441.05
2018-09-29T06:02:22.283Z,101428.88
2018-09-29T06:07:40.935Z,101429.95
2018-09-29T06:12:59.565Z,101431.99
2018-09-29T06:18:18.375Z,101437.75
2018-09-29T06:23:37.179Z,101435.72
2018-09-29T06:28:55.913Z,101448.62
2018-09-29T06:34:14.642Z,101449.55
2018-09-29T06:39:34.417Z,101450.14
2018-09-29T06:44:53.403Z,101443.09
2018-09-29T06:50:12.164Z,101439.70
2018-09-29T06:55:31.024Z,101440.56
2018-09-29T07:00:49.738Z,101443.44
2018-09-29T07:06:08.411Z,101443.14
2018-09-29T07:11:27.132Z,101436.80
2018-09-29T07:16:45.864Z,101436.95
2018-09-29T07:22:04.709Z,101434.42
2018-09-29T07:27:23.491Z,101438.72
2018-09-29T07:32:42.186Z,101442.77
2018-09-29T07:38:00.943Z,101439.56
2018-09-29T07:43:19.587Z,101444.26
2018-09-29T07:48:38.295Z,101447.03
2018-09-29T07:53:57.769Z,101446.41
2018-09-29T07:59:16.410Z,101440.08
2018-09-29T08:04:35.101Z,101445.95
2018-09-29T08:09:53.767Z,101445.70
2018-09-29T08:15:12.337Z,101441.05
2018-09-29T08:20:31.011Z,101439.51
2018-09-29T08:25:49.778Z,101437.52
2018-09-29T08:31:08.471Z,101440.97
2018-09-29T08:36:27.210Z,101454.05
2018-09-29T08:41:45.964Z,101442.67
2018-09-29T08:47:04.774Z,101442.59
2018-09-29T08:52:23.489Z,101428.52
2018-09-29T08:57:42.497Z,101430.45
2018-09-29T09:03:01.178Z,101415.46
2018-09-29T09:08:19.856Z,101425.83
2018-09-29T09:13:38.747Z,101416.60
2018-09-29T09:18:57.460Z,101410.07
2018-09-29T09:24:16.355Z,101411.60
2018-09-29T09:29:35.046Z,101409.03
2018-09-29T09:34:54.943Z,101401.22
2018-09-29T09:40:13.804Z,101393.41
2018-09-29T09:45:32.590Z,101388.09
2018-09-29T09:50:51.354Z,101381.74
2018-09-29T09:56:10.164Z,101371.27
2018-09-29T10:01:34.327Z,101365.23
2018-09-29T10:06:54.233Z,101356.08
2018-09-29T10:12:12.965Z,101341.92
2018-09-29T10:17:31.580Z,101340.02
2018-09-29T10:22:50.213Z,101331.02
2018-09-29T10:28:09.765Z,101318.34
2018-09-29T10:33:28.847Z,101307.68
2018-09-29T10:38:47.594Z,101303.82
2018-09-29T10:44:06.517Z,101302.44
2018-09-29T10:49:25.062Z,101299.48
2018-09-29T10:54:43.675Z,101295.08
2018-09-29T11:00:02.342Z,101297.98
2018-09-29T11:05:21.145Z,101284.89
2018-09-29T11:10:39.991Z,101282.59
2018-09-29T11:15:59.618Z,101277.58
2018-09-29T11:21:18.296Z,101276.18
2018-09-29T11:26:36.921Z,101259.03
2018-09-29T11:31:55.569Z,101254.02
2018-09-29T11:37:14.329Z,101243.70
2018-09-29T11:42:33.244Z,101230.13
2018-09-29T11:47:51.912Z,101214.27
2018-09-29T11:53:10.566Z,101210.34
2018-09-29T11:58:29.234Z,101197.45
2018-09-29T12:03:47.919Z,101185.66
2018-09-29T12:09:10.270Z,101185.77
2018-09-29T12:14:28.941Z,101174.02
2018-09-29T12:19:47.596Z,101163.95
2018-09-29T12:25:06.422Z,101164.52
2018-09-29T12:30:25.084Z,101152.84
2018-09-29T12:35:44.012Z,101143.50
2018-09-29T12:41:02.745Z,101132.37
2018-09-29T12:46:21.429Z,101122.31
2018-09-29T12:51:40.328Z,101112.59
2018-09-29T12:56:59.493Z,101115.19
2018-09-29T13:02:18.202Z,101105.90
2018-09-29T13:07:37.039Z,101096.62
2018-09-29T13:12:55.887Z,101095.75
2018-09-29T13:18:14.626Z,101082.39
2018-09-29T13:23:33.334Z,101070.94
2018-09-29T13:28:52.205Z,101070.11
2018-09-29T13:34:10.875Z,101061.88
2018-09-29T13:39:29.531Z,101055.48
2018-09-29T13:44:48.304Z,101042.73
2018-09-29T13:50:07.371Z,101040.47
2018-09-29T13:55:26.070Z,101038.66
2018-09-29T14:00:44.747Z,101022.03
2018-09-29T14:06:03.441Z,101016.26
2018-09-29T14:11:22.173Z,101010.56
2018-09-29T14:16:40.882Z,100993.11
2018-09-29T14:21:59.656Z,100974.20
2018-09-29T14:27:18.482Z,100967.45
2018-09-29T14:32:37.151Z,100964.44
2018-09-29T14:37:55.962Z,100951.67
2018-09-29T14:43:14.707Z,100950.27
2018-09-29T14:48:33.418Z,100942.98
2018-09-29T14:53:52.142Z,100941.61
2018-09-29T14:59:10.847Z,100931.05
2018-09-29T15:04:29.557Z,100928.30
2018-09-29T15:09:48.230Z,100927.23
2018-09-29T15:15:08.274Z,100910.04
2018-09-29T15:20:27.102Z,100913.14
2018-09-29T15:25:45.751Z,100908.10
2018-09-29T15:31:04.484Z,100902.98
2018-09-29T15:36:23.341Z,100899.13
2018-09-29T15:41:42.491Z,100891.73
2018-09-29T15:47:01.232Z,100890.34
2018-09-29T15:52:19.961Z,100880.74
2018-09-29T15:57:38.847Z,100874.41
2018-09-29T16:02:57.430Z,100879.38
2018-09-29T16:08:16.147Z,100867.59
2018-09-29T16:13:35.090Z,100869.08
2018-09-29T16:18:53.701Z,100858.16
2018-09-29T16:24:12.366Z,100848.69
2018-09-29T16:29:31.023Z,100848.52
2018-09-29T16:34:49.671Z,100842.22
2018-09-29T16:40:08.509Z,100840.63
2018-09-29T16:45:27.162Z,100839.09
2018-09-29T16:50:45.784Z,100841.66
2018-09-29T16:56:04.506Z,100841.84
2018-09-29T17:01:23.225Z,100836.98
2018-09-29T17:06:42.402Z,100845.95
2018-09-29T17:12:01.158Z,100842.45
2018-09-29T17:17:19.918Z,100844.27
2018-09-29T17:22:38.616Z,100833.77
2018-09-29T17:28:04.045Z,100826.92
2018-09-29T17:33:22.740Z,100827.85
2018-09-29T17:38:41.507Z,100835.88
2018-09-29T17:44:00.200Z,100828.45
2018-09-29T17:49:19.006Z,100831.19
2018-09-29T17:54:37.705Z,100825.77
2018-09-29T17:59:56.402Z,100820.00
2018-09-29T18:05:15.146Z,100822.25
2018-09-29T18:10:34.037Z,100820.30
2018-09-29T18:15:52.828Z,100814.39
2018-09-29T18:21:11.599Z,100806.95
2018-09-29T18:26:30.372Z,100811.47
2018-09-29T18:31:49.114Z,100801.06
2018-09-29T18:37:07.961Z,100798.09
2018-09-29T18:42:26.744Z,100801.09
2018-09-29T18:47:45.537Z,100806.20
2018-09-29T18:53:04.420Z,100805.20
2018-09-29T18:58:23.280Z,100801.56
2018-09-29T19:03:42.821Z,100801.38
2018-09-29T19:09:01.481Z,100804.66
2018-09-29T19:14:20.192Z,100798.55
2018-09-29T19:19:38.960Z,100813.39
2018-09-29T19:24:57.714Z,100810.55
2018-09-29T19:30:16.407Z,100820.44
2018-09-29T19:35:35.076Z,100815.63
2018-09-29T19:40:53.790Z,100826.03
2018-09-29T19:46:12.549Z,100810.30
2018-09-29T19:51:31.452Z,100814.53
2018-09-29T19:56:50.123Z,100805.12
2018-09-29T20:02:08.818Z,100805.09
2018-09-29T20:07:27.668Z,100809.51
2018-09-29T20:12:46.478Z,100797.73
2018-09-29T20:18:05.120Z,100786.44
2018-09-29T20:23:23.803Z,100782.09
2018-09-29T20:28:42.662Z,100779.41
2018-09-29T20:34:01.399Z,100772.95
2018-09-29T20:39:20.045Z,100769.48
2018-09-29T20:44:38.739Z,100771.85
2018-09-29T20:49:57.605Z,100759.78
2018-09-29T20:55:16.477Z,100754.95
2018-09-29T21:00:35.178Z,100745.14
2018-09-29T21:05:53.853Z,100738.23
2018-09-29T21:11:12.492Z,100733.72
2018-09-29T21:16:31.164Z,100730.70
2018-09-29T21:21:49.896Z,100730.08
2018-09-29T21:27:08.612Z,100713.64
2018-09-29T21:32:27.280Z,100708.27
2018-09-29T21:37:46.006Z,100697.41
2018-09-29T21:43:04.590Z,100695.00
2018-09-29T21:48:23.192Z,100687.23
2018-09-29T21:53:41.885Z,100686.19
2018-09-29T21:59:00.521Z,100674.95
2018-09-29T22:04:19.126Z,100678.16
2018-09-29T22:09:37.827Z,100668.41
2018-09-29T22:14:56.482Z,100665.25
2018-09-29T22:20:15.223Z,100657.34
2018-09-29T22:25:33.981Z,100652.48
2018-09-29T22:30:52.666Z,100656.64
2018-09-29T22:36:11.203Z,100643.36
2018-09-29T22:41:29.871Z,100631.25
2018-09-29T22:46:48.465Z,100623.47
2018-09-29T22:52:07.322Z,100622.98
2018-09-29T22:57:26.102Z,100624.59
2018-09-29T23:02:44.794Z,100620.41
2018-09-29T23:08:03.446Z,100620.64
2018-09-29T23:13:22.175Z,100618.62
2018-09-29T23:18:40.954Z,100624.97
2018-09-29T23:23:59.713Z,100615.05
2018-09-29T23:29:18.389Z,100620.78
2018-09-29T23:34:37.047Z,100623.49
2018-09-29T23:39:55.835Z,100622.64
2018-09-29T23:45:14.550Z,100622.41
2018-09-29T23:50:33.248Z,100614.59
2018-09-29T23:55:51.884Z,100606.65
